Time;durP1;ratioP1;P1;durP2;ratioP2;P2;SDS_P1;SDS_P2;PMS_P1;PMS_P2;Temp;Humidity;BMP_temperature;BMP_pressure;BME280_temperature;BME280_humidity;BME280_pressure;Samples;Min_cycle;Max_cycle;Signal;HPM_P1;HPM_P2
2022/12/11 00:01:44;;;;;;;187.10;88.37;;;-3.90;96.30;;;;;;5111899;28;20763;-65
2022/12/11 00:04:13;;;;;;;204.33;90.77;;;-4.00;96.80;;;;;;5111736;28;20241;-68
2022/12/11 00:06:41;;;;;;;180.70;83.93;;;-4.10;96.90;;;;;;5111938;28;20215;-65
2022/12/11 00:09:10;;;;;;;170.00;84.07;;;-4.10;97.80;;;;;;5111764;28;20203;-70
2022/12/11 00:11:39;;;;;;;169.93;84.10;;;-4.10;98.30;;;;;;5111695;28;20198;-71
2022/12/11 00:14:08;;;;;;;143.00;66.17;;;-4.00;98.10;;;;;;5111923;28;20197;-66
2022/12/11 00:16:37;;;;;;;144.90;69.43;;;-4.00;96.60;;;;;;5113858;28;20231;-78
2022/12/11 00:19:08;;;;;;;157.60;77.60;;;-4.10;96.70;;;;;;5115982;28;20271;-69
2022/12/11 00:21:36;;;;;;;191.77;84.10;;;-4.00;97.60;;;;;;5116166;28;20191;-66
2022/12/11 00:24:06;;;;;;;209.50;93.73;;;-4.00;96.90;;;;;;5115985;28;20219;-68
2022/12/11 00:26:34;;;;;;;216.30;99.57;;;-4.00;95.60;;;;;;5115565;28;20658;-69
2022/12/11 00:29:03;;;;;;;196.13;90.30;;;-4.10;95.30;;;;;;5115979;28;20189;-66
2022/12/11 00:31:32;;;;;;;216.53;98.20;;;-4.20;95.40;;;;;;5115923;28;20571;-69
2022/12/11 00:34:01;;;;;;;225.27;96.13;;;-4.30;95.70;;;;;;5115794;28;20235;-69
2022/12/11 00:36:31;;;;;;;202.73;93.23;;;-4.40;96.00;;;;;;5115918;28;20223;-68
2022/12/11 00:39:01;;;;;;;177.67;80.33;;;-4.40;96.30;;;;;;5115556;28;20197;-70
2022/12/11 00:41:29;;;;;;;181.63;80.13;;;-4.40;96.50;;;;;;5115633;28;20212;-79
2022/12/11 00:43:58;;;;;;;170.93;78.77;;;-4.40;97.40;;;;;;5115764;28;20197;-67
2022/12/11 00:46:27;;;;;;;186.70;88.70;;;-4.40;97.00;;;;;;5115619;28;20201;-67
2022/12/11 00:48:55;;;;;;;210.23;96.07;;;-4.40;96.30;;;;;;5115499;28;20214;-77
2022/12/11 00:51:24;;;;;;;200.47;94.93;;;-4.40;97.20;;;;;;5115458;28;20674;-65
2022/12/11 00:53:54;;;;;;;183.77;83.13;;;-4.30;97.00;;;;;;5115375;28;20250;-77
2022/12/11 00:56:24;;;;;;;168.27;78.53;;;-4.30;95.40;;;;;;5115490;28;20215;-76
2022/12/11 00:58:52;;;;;;;177.43;80.50;;;-4.40;95.10;;;;;;5115272;28;20214;-72
2022/12/11 01:01:24;;;;;;;171.53;75.77;;;-4.30;96.90;;;;;;5115354;28;20665;-68
2022/12/11 01:03:53;;;;;;;155.73;75.27;;;-4.30;94.60;;;;;;5115178;28;20811;-65
2022/12/11 01:06:23;;;;;;;162.47;71.23;;;-4.30;94.70;;;;;;5115021;28;20562;-76
2022/12/11 01:10:22;;;;;;;160.13;75.57;;;-4.30;95.80;;;;;;5115241;28;20196;-79
2022/12/11 01:11:42;;;;;;;162.57;70.97;;;-4.20;95.90;;;;;;5115153;28;20192;-79
2022/12/11 01:14:11;;;;;;;152.33;71.63;;;-4.20;95.40;;;;;;5114931;28;20224;-77
2022/12/11 01:16:40;;;;;;;159.13;74.37;;;-4.20;95.30;;;;;;5115084;28;20192;-79
2022/12/11 01:19:08;;;;;;;170.60;77.50;;;-4.20;94.20;;;;;;5115001;28;20595;-66
2022/12/11 01:21:37;;;;;;;175.83;78.57;;;-4.30;94.40;;;;;;5114961;28;20196;-67
2022/12/11 01:24:06;;;;;;;167.70;79.83;;;-4.30;95.30;;;;;;5114840;28;20220;-72
2022/12/11 01:26:35;;;;;;;180.00;79.63;;;-4.30;95.30;;;;;;5114184;28;20200;-68
2022/12/11 01:29:04;;;;;;;163.33;75.70;;;-4.20;95.70;;;;;;5114655;28;20571;-67
2022/12/11 01:31:33;;;;;;;166.67;75.53;;;-4.10;96.00;;;;;;5114730;28;20197;-69
2022/12/11 01:34:01;;;;;;;157.63;74.40;;;-4.10;94.00;;;;;;5114463;28;20215;-66
2022/12/11 01:36:30;;;;;;;162.13;71.70;;;-4.20;92.90;;;;;;5114630;28;20780;-65
2022/12/11 01:38:59;;;;;;;159.47;72.33;;;-4.20;94.10;;;;;;5114709;28;20206;-65
2022/12/11 01:41:27;;;;;;;163.50;74.13;;;-4.20;94.30;;;;;;5114568;28;20296;-65
2022/12/11 01:44:01;;;;;;;131.70;60.83;;;-4.20;94.80;;;;;;5114600;28;20195;-66
2022/12/11 01:46:33;;;;;;;130.63;61.43;;;-4.30;93.90;;;;;;5114514;28;20199;-65
2022/12/11 01:49:06;;;;;;;109.90;51.87;;;-4.40;93.30;;;;;;5114170;28;20228;-66
2022/12/11 01:51:40;;;;;;;93.27;43.60;;;-4.50;93.60;;;;;;5114542;28;20269;-65
2022/12/11 01:54:11;;;;;;;82.27;40.53;;;-4.60;94.00;;;;;;5114271;28;20224;-73
2022/12/11 01:56:43;;;;;;;84.53;42.50;;;-4.60;95.00;;;;;;5114336;28;20200;-66
2022/12/11 01:59:17;;;;;;;115.10;52.13;;;-4.60;95.30;;;;;;5114170;28;20240;-66
2022/12/11 02:01:51;;;;;;;111.07;53.47;;;-4.70;94.90;;;;;;5113944;28;20254;-67
2022/12/11 02:04:20;;;;;;;126.63;54.63;;;-4.60;95.80;;;;;;5114124;28;20256;-70
2022/12/11 02:06:50;;;;;;;124.83;55.63;;;-4.60;95.20;;;;;;5114018;28;20679;-65
2022/12/11 02:09:21;;;;;;;121.13;54.50;;;-4.50;95.90;;;;;;5114171;28;20278;-64
2022/12/11 02:11:58;;;;;;;113.47;52.37;;;-4.50;96.50;;;;;;5113978;28;20203;-64
2022/12/11 02:14:32;;;;;;;113.10;47.50;;;-4.50;96.60;;;;;;5113804;28;20243;-66
2022/12/11 02:17:07;;;;;;;110.47;47.83;;;-4.40;98.40;;;;;;5114048;28;20559;-66
2022/12/11 02:19:49;;;;;;;105.47;46.80;;;-4.30;98.80;;;;;;5113870;28;20212;-70
2022/12/11 02:22:27;;;;;;;90.73;44.53;;;-4.20;97.70;;;;;;5113839;28;20208;-66
2022/12/11 02:25:09;;;;;;;88.47;40.50;;;-4.10;97.50;;;;;;5113346;28;20257;-66
2022/12/11 02:27:44;;;;;;;77.47;37.30;;;-3.90;98.50;;;;;;5113714;28;20193;-65
2022/12/11 02:30:16;;;;;;;83.97;37.70;;;-3.90;97.80;;;;;;5113529;28;20677;-66
2022/12/11 02:32:48;;;;;;;51.90;29.43;;;-3.80;97.60;;;;;;5113544;28;20665;-65
2022/12/11 02:35:22;;;;;;;65.60;32.23;;;-3.70;98.10;;;;;;5113453;28;20231;-66
2022/12/11 02:37:56;;;;;;;64.80;33.30;;;-3.70;97.60;;;;;;5113438;28;20196;-66
2022/12/11 02:40:28;;;;;;;64.57;31.73;;;-3.70;97.20;;;;;;5112944;28;20602;-66
2022/12/11 02:43:00;;;;;;;57.27;29.47;;;-3.70;97.90;;;;;;5113561;28;20203;-66
2022/12/11 02:45:31;;;;;;;55.10;28.33;;;-3.70;98.10;;;;;;5113323;28;20352;-66
2022/12/11 02:48:03;;;;;;;84.33;38.57;;;-3.80;98.00;;;;;;5113317;28;20188;-68
2022/12/11 02:50:33;;;;;;;122.47;52.67;;;-3.80;98.50;;;;;;5111916;28;20232;-78
2022/12/11 02:53:03;;;;;;;116.00;54.30;;;-3.80;98.30;;;;;;5113234;28;20667;-79
2022/12/11 02:55:33;;;;;;;118.73;52.30;;;-3.80;97.80;;;;;;5113452;28;20224;-75
2022/12/11 02:58:07;;;;;;;122.30;54.07;;;-3.90;98.20;;;;;;5113708;28;20200;-77
2022/12/11 03:00:37;;;;;;;124.57;58.40;;;-3.90;97.20;;;;;;5113449;28;20220;-78
2022/12/11 03:03:06;;;;;;;136.87;63.80;;;-3.90;97.30;;;;;;5113190;28;20189;-69
2022/12/11 03:05:35;;;;;;;145.20;66.07;;;-3.90;97.20;;;;;;5112986;28;20733;-65
2022/12/11 03:08:03;;;;;;;136.30;63.60;;;-3.90;97.30;;;;;;5112961;28;20191;-66
2022/12/11 03:10:32;;;;;;;139.63;61.97;;;-3.90;96.50;;;;;;5112603;28;20226;-65
2022/12/11 03:13:02;;;;;;;137.37;60.73;;;-4.00;96.80;;;;;;5112757;28;20287;-66
2022/12/11 03:15:41;;;;;;;141.27;62.27;;;-4.00;97.30;;;;;;5112654;28;20211;-66
2022/12/11 03:18:14;;;;;;;149.10;65.93;;;-4.00;98.00;;;;;;5112717;28;20639;-67
2022/12/11 03:20:46;;;;;;;138.37;63.73;;;-4.00;98.00;;;;;;5112439;28;20245;-69
2022/12/11 03:23:21;;;;;;;129.60;59.97;;;-4.00;97.90;;;;;;5112613;28;20294;-67
2022/12/11 03:25:54;;;;;;;134.97;62.47;;;-4.00;98.80;;;;;;5112415;28;20199;-67
2022/12/11 03:28:29;;;;;;;132.70;61.23;;;-3.80;99.30;;;;;;5112525;28;20330;-65
2022/12/11 03:31:05;;;;;;;128.27;58.83;;;-3.60;98.40;;;;;;5112588;28;20214;-67
2022/12/11 03:33:37;;;;;;;131.97;61.20;;;-3.60;98.40;;;;;;5112467;28;20195;-67
2022/12/11 03:36:10;;;;;;;117.67;56.30;;;-3.60;97.10;;;;;;5093834;28;20257;-68
2022/12/11 03:38:44;;;;;;;122.53;59.33;;;-3.60;97.30;;;;;;5112445;28;20226;-65
2022/12/11 03:41:14;;;;;;;133.73;61.60;;;-3.50;97.90;;;;;;5112404;28;20625;-66
2022/12/11 15:39:56;;;;;;;43.97;32.20;;;18.50;48.10;;;;;;5088289;27;20931;-67
2022/12/11 15:42:28;;;;;;;51.97;36.10;;;17.60;42.60;;;;;;5086249;28;20225;-68
2022/12/11 15:44:58;;;;;;;43.57;31.20;;;13.30;46.90;;;;;;5088987;28;20666;-64
2022/12/11 15:47:28;;;;;;;50.10;29.13;;;10.30;51.40;;;;;;5088253;28;20672;-66
2022/12/11 15:50:00;;;;;;;40.47;25.57;;;8.40;55.90;;;;;;5088230;28;20276;-66
2022/12/11 15:52:29;;;;;;;41.70;25.90;;;6.90;59.60;;;;;;5086388;28;20594;-68
2022/12/11 15:54:59;;;;;;;37.47;23.57;;;6.00;63.60;;;;;;5086397;28;20677;-66
2022/12/11 15:57:27;;;;;;;32.40;18.20;;;5.20;68.00;;;;;;5084924;28;20208;-66
2022/12/11 15:59:56;;;;;;;20.33;13.23;;;4.70;72.40;;;;;;5073845;28;20646;-69
2022/12/11 16:02:26;;;;;;;64.57;33.97;;;4.20;75.90;;;;;;5081007;28;20306;-73
2022/12/11 16:04:56;;;;;;;64.77;34.57;;;3.80;80.60;;;;;;5087732;28;20223;-65
2022/12/11 16:07:26;;;;;;;32.13;19.13;;;3.40;85.90;;;;;;5087798;28;20202;-64
2022/12/11 16:09:54;;;;;;;37.73;23.30;;;3.10;90.80;;;;;;5086406;28;20587;-64
2022/12/11 16:12:24;;;;;;;47.43;28.03;;;2.80;93.80;;;;;;5087456;28;20205;-65
2022/12/11 16:14:53;;;;;;;70.43;35.77;;;2.60;96.90;;;;;;5074501;28;20205;-66
2022/12/11 16:17:21;;;;;;;79.57;40.63;;;2.40;99.60;;;;;;5067513;28;20203;-65
2022/12/11 16:19:50;;;;;;;101.10;49.67;;;2.30;99.90;;;;;;5067667;28;20708;-65
2022/12/11 16:22:18;;;;;;;123.90;60.67;;;2.20;99.90;;;;;;5067825;28;20220;-66
2022/12/11 16:24:47;;;;;;;146.47;74.77;;;2.00;99.90;;;;;;5067133;28;20199;-65
2022/12/11 16:27:16;;;;;;;165.07;83.17;;;1.90;99.90;;;;;;5067228;28;20209;-64
2022/12/11 16:29:51;;;;;;;180.53;93.83;;;1.80;99.90;;;;;;5067294;28;20598;-65
2022/12/11 16:32:20;;;;;;;193.40;97.70;;;1.70;99.90;;;;;;5066887;28;20205;-65
2022/12/11 16:34:49;;;;;;;247.07;127.13;;;1.60;99.90;;;;;;5066890;28;20201;-69
2022/12/11 16:37:17;;;;;;;262.17;131.30;;;1.50;99.90;;;;;;5065661;28;20293;-71
2022/12/11 16:39:46;;;;;;;245.53;126.53;;;1.50;99.90;;;;;;5066453;28;20793;-64
2022/12/11 16:42:14;;;;;;;226.83;117.20;;;1.40;99.90;;;;;;5074507;28;20200;-66
2022/12/11 16:44:43;;;;;;;222.03;111.53;;;1.40;99.90;;;;;;5087087;28;20228;-64
2022/12/11 16:47:13;;;;;;;203.97;102.70;;;1.30;99.90;;;;;;5087195;28;20201;-65
2022/12/11 16:49:42;;;;;;;179.47;92.33;;;1.30;99.90;;;;;;5082044;28;20639;-65
2022/12/11 16:52:10;;;;;;;196.47;95.57;;;1.30;99.90;;;;;;5073409;28;20212;-65
2022/12/11 16:54:41;;;;;;;183.40;94.97;;;1.30;99.90;;;;;;5073250;28;20224;-65
2022/12/11 16:57:09;;;;;;;180.50;91.17;;;1.30;99.90;;;;;;5073568;28;20201;-65
2022/12/11 16:59:38;;;;;;;202.83;102.77;;;1.30;99.90;;;;;;5073442;28;20627;-65
2022/12/11 17:02:07;;;;;;;169.43;88.40;;;1.20;99.90;;;;;;5073332;28;20208;-66
2022/12/11 17:04:37;;;;;;;121.80;66.40;;;1.20;99.90;;;;;;5073251;28;20239;-65
2022/12/11 17:07:06;;;;;;;142.73;79.43;;;1.20;99.90;;;;;;5073285;28;20201;-65
2022/12/11 17:09:35;;;;;;;150.10;80.33;;;1.20;99.90;;;;;;5073083;28;20276;-66
2022/12/11 22:37:20;;;;;;;4.03;3.63;;;3.70;99.90;;;;;;5149629;27;20280;-71
2022/12/11 22:39:49;;;;;;;4.20;3.67;;;4.50;99.90;;;;;;5149946;27;20200;-76
2022/12/11 22:42:18;;;;;;;5.30;4.07;;;4.40;99.90;;;;;;5149655;27;20195;-78
2022/12/11 22:44:46;;;;;;;10.37;5.20;;;4.40;99.90;;;;;;5136994;27;20205;-76
2022/12/11 22:47:16;;;;;;;13.03;5.83;;;4.30;99.70;;;;;;5128680;28;20196;-76
2022/12/11 22:49:45;;;;;;;7.30;5.30;;;4.40;99.40;;;;;;5125992;27;20193;-78
2022/12/11 22:52:14;;;;;;;10.10;5.60;;;4.40;98.80;;;;;;5128112;28;20219;-78
2022/12/11 22:54:44;;;;;;;9.23;5.97;;;4.30;99.00;;;;;;5125726;28;20200;-73
2022/12/11 22:57:13;;;;;;;7.70;5.90;;;4.30;98.80;;;;;;5128189;27;20222;-80
2022/12/11 22:59:42;;;;;;;11.83;7.63;;;4.30;99.20;;;;;;5111210;27;20204;-72
2022/12/11 23:02:11;;;;;;;13.70;8.23;;;4.20;99.10;;;;;;5122616;27;20206;-72
2022/12/11 23:04:40;;;;;;;11.50;8.40;;;4.10;99.70;;;;;;5108012;28;20217;-75
2022/12/11 23:07:08;;;;;;;15.57;9.33;;;4.10;99.90;;;;;;5108022;28;20192;-77
2022/12/11 23:09:37;;;;;;;14.63;7.67;;;4.00;99.90;;;;;;5108022;28;20254;-72
2022/12/11 23:12:08;;;;;;;13.47;8.43;;;3.90;99.90;;;;;;5108027;28;20729;-74
2022/12/11 23:14:37;;;;;;;16.63;9.10;;;3.90;99.90;;;;;;5117518;28;20578;-72
2022/12/11 23:17:06;;;;;;;18.40;9.50;;;3.80;99.90;;;;;;5128518;28;20207;-71
2022/12/11 23:19:35;;;;;;;12.97;7.90;;;3.80;99.90;;;;;;5128123;28;20191;-73
2022/12/11 23:22:03;;;;;;;12.27;7.00;;;3.70;99.90;;;;;;5128486;28;20283;-73
2022/12/11 23:24:32;;;;;;;6.77;5.43;;;3.70;99.90;;;;;;5128191;28;20687;-72
2022/12/11 23:27:01;;;;;;;7.97;5.60;;;3.70;99.90;;;;;;5128186;28;20575;-71
2022/12/11 23:29:31;;;;;;;6.43;5.03;;;3.60;99.90;;;;;;5127983;28;20197;-71
2022/12/11 23:32:00;;;;;;;8.33;5.20;;;3.60;99.90;;;;;;5128110;28;20192;-71
2022/12/11 23:34:29;;;;;;;4.80;4.10;;;3.60;99.90;;;;;;5127942;28;20214;-74
2022/12/11 23:36:57;;;;;;;4.47;3.97;;;3.60;99.90;;;;;;5120570;28;20243;-75
2022/12/11 23:39:26;;;;;;;7.00;4.50;;;3.50;99.90;;;;;;5104279;28;20656;-84
2022/12/11 23:41:54;;;;;;;4.90;3.70;;;3.50;99.90;;;;;;5128163;28;20203;-81
2022/12/11 23:44:23;;;;;;;7.37;4.57;;;3.50;99.90;;;;;;5127851;28;20195;-84
2022/12/11 23:46:53;;;;;;;6.90;5.00;;;3.50;99.90;;;;;;5118804;28;20196;-79
2022/12/11 23:49:21;;;;;;;4.80;4.30;;;3.50;99.90;;;;;;5111806;28;20612;-77
2022/12/11 23:51:50;;;;;;;4.47;3.83;;;3.40;99.90;;;;;;5114406;28;20198;-86
2022/12/11 23:54:18;;;;;;;5.13;3.70;;;3.40;99.90;;;;;;5114198;28;20200;-81
2022/12/11 23:56:47;;;;;;;3.30;3.10;;;3.40;99.90;;;;;;5114061;28;20243;-73
2022/12/11 23:59:15;;;;;;;3.50;3.20;;;3.30;99.90;;;;;;5113987;28;20192;-72
